Time;durP1;ratioP1;P1;durP2;ratioP2;P2;SDS_P1;SDS_P2;PMS_P1;PMS_P2;Temp;Humidity;BMP_temperature;BMP_pressure;BME280_temperature;BME280_humidity;BME280_pressure;Samples;Min_cycle;Max_cycle;Signal;HPM_P1;HPM_P2
2024/02/27 00:02:45;;;;;;;5.80;2.33;;;;;;;10.26;93.59;99252.50;5093985;28;20055;-82
2024/02/27 00:05:50;;;;;;;4.45;2.60;;;;;;;10.66;93.25;99250.00;5093669;28;20055;-80
2024/02/27 00:08:56;;;;;;;3.65;2.20;;;;;;;11.28;90.50;99255.88;5093696;28;20051;-81
2024/02/27 00:12:01;;;;;;;4.32;2.60;;;;;;;11.11;90.86;99258.50;5093370;28;20055;-82
2024/02/27 00:15:07;;;;;;;3.42;2.17;;;;;;;11.00;90.45;99252.63;5093703;28;20051;-80
2024/02/27 00:18:16;;;;;;;4.28;2.60;;;;;;;10.81;91.22;99253.72;5093668;28;20051;-81
2024/02/27 00:21:21;;;;;;;3.67;2.30;;;;;;;10.88;90.97;99267.34;5093160;28;20482;-79
2024/02/27 00:24:26;;;;;;;5.07;2.17;;;;;;;10.74;92.11;99268.81;5093515;28;20063;-77
2024/02/27 00:27:30;;;;;;;5.15;1.83;;;;;;;10.51;92.45;99262.34;5093500;28;20055;-81
2024/02/27 00:30:35;;;;;;;3.63;2.30;;;;;;;10.54;92.88;99267.41;5093419;28;20055;-79
2024/02/27 00:33:39;;;;;;;3.47;2.20;;;;;;;10.51;92.49;99272.25;5094041;28;20047;-80
2024/02/27 00:36:44;;;;;;;4.75;2.35;;;;;;;10.40;94.62;99270.66;5097499;28;20485;-79
2024/02/27 00:39:48;;;;;;;5.10;2.75;;;;;;;10.53;93.14;99264.88;5097310;28;20047;-79
2024/02/27 00:42:53;;;;;;;4.85;2.42;;;;;;;10.30;94.10;99269.94;5097343;28;20059;-80
2024/02/27 00:45:57;;;;;;;4.28;2.85;;;;;;;10.65;93.10;99267.09;5097400;28;20055;-81
2024/02/27 00:49:02;;;;;;;5.70;2.90;;;;;;;10.31;93.63;99277.00;5097089;28;20039;-83
2024/02/27 00:52:08;;;;;;;3.65;2.15;;;;;;;10.34;93.85;99274.00;5096150;28;20051;-82
2024/02/27 00:55:14;;;;;;;3.40;1.80;;;;;;;10.23;94.21;99268.91;5096875;28;20055;-80
2024/02/27 00:58:18;;;;;;;3.90;1.90;;;;;;;10.25;93.56;99270.41;5097166;28;20071;-81
2024/02/27 01:01:23;;;;;;;5.07;1.80;;;;;;;10.55;93.42;99274.44;5096665;28;20055;-78
2024/02/27 01:04:28;;;;;;;2.55;1.35;;;;;;;10.58;92.76;99268.75;5096745;28;20078;-79
2024/02/27 01:07:33;;;;;;;5.78;1.95;;;;;;;10.58;92.24;99282.16;5096884;28;20383;-80
2024/02/27 01:10:37;;;;;;;5.55;1.45;;;;;;;10.84;91.40;99264.13;5096873;28;20398;-82
2024/02/27 01:13:42;;;;;;;2.10;1.15;;;;;;;11.08;90.57;99258.03;5096418;28;20043;-79
2024/02/27 01:16:46;;;;;;;4.25;1.63;;;;;;;11.02;89.88;99256.81;5096778;28;20074;-79
2024/02/27 01:19:51;;;;;;;3.78;1.40;;;;;;;10.97;89.90;99248.41;5084200;28;20103;-79
2024/02/27 01:22:56;;;;;;;5.10;1.80;;;;;;;11.15;89.41;99242.91;5096424;28;20067;-80
2024/02/27 01:26:01;;;;;;;3.53;1.33;;;;;;;10.70;90.56;99248.66;5074219;28;20166;-80
2024/02/27 01:29:05;;;;;;;3.10;1.67;;;;;;;10.58;91.93;99235.72;5062014;28;20055;-80
2024/02/27 01:32:10;;;;;;;3.30;1.90;;;;;;;10.72;91.66;99235.91;5073812;28;20068;-81
2024/02/27 01:35:18;;;;;;;3.88;1.48;;;;;;;10.51;92.20;99226.63;5073570;28;20064;-81
2024/02/27 01:38:22;;;;;;;2.97;1.63;;;;;;;10.63;91.38;99219.97;5073728;28;20055;-81
2024/02/27 01:41:27;;;;;;;3.42;1.80;;;;;;;10.67;91.75;99224.00;5062265;28;20056;-79
2024/02/27 01:44:31;;;;;;;3.88;2.05;;;;;;;10.79;92.01;99220.03;5073293;28;20455;-80
2024/02/27 01:47:36;;;;;;;2.72;1.23;;;;;;;10.40;91.90;99225.91;5073812;28;20051;-80
2024/02/27 01:50:45;;;;;;;4.28;1.02;;;;;;;10.13;92.91;99231.47;5073123;28;20574;-79
2024/02/27 01:53:57;;;;;;;4.07;1.20;;;;;;;10.05;92.91;99235.94;5073706;28;20139;-81
2024/02/27 01:57:04;;;;;;;2.93;1.00;;;;;;;10.03;92.61;99225.34;5073776;28;20067;-78
2024/02/27 02:00:09;;;;;;;2.35;1.00;;;;;;;10.25;91.43;99218.63;5072612;28;20051;-80
2024/02/27 02:03:21;;;;;;;1.65;0.70;;;;;;;10.29;91.09;99194.03;5100403;28;20498;-80
2024/02/27 02:06:26;;;;;;;1.63;0.60;;;;;;;10.36;90.86;99172.75;5115636;28;20058;-81
2024/02/27 02:09:31;;;;;;;2.15;0.70;;;;;;;10.33;90.92;99143.56;5115268;28;20047;-79
2024/02/27 02:12:36;;;;;;;5.68;1.00;;;;;;;10.47;90.35;99140.25;5115440;28;20051;-80
2024/02/27 02:15:42;;;;;;;4.13;1.00;;;;;;;10.36;91.07;99156.66;5103281;28;20055;-80
2024/02/27 02:18:49;;;;;;;1.33;0.60;;;;;;;10.25;91.64;99173.88;5115313;28;20050;-80
2024/02/27 02:21:56;;;;;;;1.52;0.70;;;;;;;10.22;91.38;99176.88;5052931;28;20072;-80
2024/02/27 02:25:03;;;;;;;2.15;0.73;;;;;;;10.37;90.88;99171.72;5041728;28;20048;-79
2024/02/27 02:28:08;;;;;;;1.67;0.70;;;;;;;9.90;91.26;99182.03;5052916;28;20603;-78
2024/02/27 02:31:13;;;;;;;2.40;0.70;;;;;;;9.68;92.71;99188.78;5053229;28;20044;-80
2024/02/27 02:34:17;;;;;;;2.13;0.50;;;;;;;9.44;93.59;99179.72;5053184;28;20048;-78
2024/02/27 02:37:26;;;;;;;1.05;0.40;;;;;;;9.48;93.54;99181.94;5032635;28;20059;-80
2024/02/27 02:40:31;;;;;;;0.80;0.40;;;;;;;9.72;92.81;99162.53;5032910;28;20053;-81
2024/02/27 02:43:36;;;;;;;1.60;0.55;;;;;;;10.03;91.31;99160.16;5021363;28;20056;-81
2024/02/27 02:46:43;;;;;;;2.97;0.40;;;;;;;10.04;90.57;99167.22;5032213;28;20072;-82
2024/02/27 02:49:48;;;;;;;4.45;0.70;;;;;;;9.91;91.18;99174.84;5036682;28;20064;-80
2024/02/27 02:52:52;;;;;;;1.20;0.40;;;;;;;9.65;92.83;99173.00;5069990;28;20047;-81
2024/02/27 02:55:57;;;;;;;3.80;0.82;;;;;;;9.90;91.78;99160.59;5094720;28;20150;-81
2024/02/27 02:59:01;;;;;;;2.55;0.30;;;;;;;10.13;91.05;99166.28;5093988;28;20067;-83
2024/02/27 03:02:06;;;;;;;3.92;1.08;;;;;;;10.36;89.94;99178.13;5094661;28;20047;-80
2024/02/27 03:05:12;;;;;;;1.58;0.32;;;;;;;10.42;89.58;99183.66;5094552;28;20043;-80
2024/02/27 03:08:16;;;;;;;2.75;0.50;;;;;;;9.73;91.65;99194.50;5081991;28;20051;-81
2024/02/27 03:11:21;;;;;;;2.45;0.60;;;;;;;9.83;91.81;99181.84;5094576;28;20383;-82
2024/02/27 03:14:26;;;;;;;1.48;0.30;;;;;;;10.01;91.27;99172.88;5094432;28;20123;-80
2024/02/27 03:17:30;;;;;;;1.25;0.40;;;;;;;10.15;91.41;99172.31;5097149;28;20071;-81
2024/02/27 03:20:34;;;;;;;1.45;0.63;;;;;;;9.80;91.54;99182.16;5081263;28;20055;-83
2024/02/27 03:23:40;;;;;;;3.20;1.00;;;;;;;9.47;93.74;99182.94;5093992;28;20070;-81
2024/02/27 03:26:45;;;;;;;2.28;0.63;;;;;;;9.32;94.29;99175.63;5081721;28;20047;-82
2024/02/27 03:29:50;;;;;;;1.73;0.52;;;;;;;9.51;93.57;99167.38;5094176;28;20071;-80
2024/02/27 03:32:55;;;;;;;1.10;0.52;;;;;;;9.80;92.65;99176.78;5093723;28;20051;-82
2024/02/27 03:36:03;;;;;;;1.38;0.60;;;;;;;9.77;92.97;99178.97;5093420;28;20070;-80
2024/02/27 03:39:07;;;;;;;1.25;0.40;;;;;;;9.82;92.54;99188.22;5081578;28;20055;-80
2024/02/27 03:42:12;;;;;;;2.47;0.80;;;;;;;10.09;92.24;99172.94;5081258;28;20071;-82
2024/02/27 03:45:16;;;;;;;2.08;0.47;;;;;;;10.15;91.23;99153.53;5093939;28;20047;-83
2024/02/27 03:48:21;;;;;;;2.10;0.65;;;;;;;10.15;91.83;99132.09;5093865;28;20059;-81
2024/02/27 03:51:25;;;;;;;1.52;0.50;;;;;;;10.17;91.84;99108.66;5093195;28;20051;-81
2024/02/27 03:54:30;;;;;;;3.75;0.60;;;;;;;10.19;91.69;99117.38;5093466;28;20055;-80
2024/02/27 03:57:34;;;;;;;1.30;0.50;;;;;;;10.32;91.89;99140.03;5081306;28;20055;-81
2024/02/27 04:00:39;;;;;;;1.65;0.60;;;;;;;10.56;90.72;99139.28;5092590;28;20524;-80
2024/02/27 04:03:44;;;;;;;0.88;0.47;;;;;;;10.58;90.20;99145.31;5093670;28;20075;-82
2024/02/27 04:06:49;;;;;;;1.13;0.40;;;;;;;10.40;91.02;99148.13;5092898;28;20063;-82
2024/02/27 04:09:54;;;;;;;1.95;0.73;;;;;;;10.29;92.07;99153.78;5080787;28;20063;-82
2024/02/27 04:12:58;;;;;;;1.30;0.40;;;;;;;10.41;92.24;99146.28;5093422;28;20406;-80
2024/02/27 04:16:03;;;;;;;1.55;0.43;;;;;;;10.38;91.88;99143.91;5081129;28;20051;-81
2024/02/27 04:19:08;;;;;;;1.42;0.30;;;;;;;10.43;91.73;99142.44;5093873;28;20501;-81
2024/02/27 04:22:12;;;;;;;1.55;0.40;;;;;;;10.64;91.01;99133.91;5093514;28;20052;-81
2024/02/27 04:25:17;;;;;;;2.70;0.55;;;;;;;10.79;89.92;99131.44;5093353;28;20055;-81
2024/02/27 04:28:21;;;;;;;1.33;0.60;;;;;;;10.73;90.58;99126.72;5081012;28;20047;-82
2024/02/27 04:31:26;;;;;;;1.73;0.50;;;;;;;10.80;90.50;99125.91;5093356;28;20066;-79
2024/02/27 04:34:30;;;;;;;1.58;0.40;;;;;;;10.70;90.49;99127.06;5093353;28;20386;-82
2024/02/27 04:37:35;;;;;;;1.30;0.50;;;;;;;10.89;90.77;99124.91;5080476;28;20115;-81
2024/02/27 04:40:40;;;;;;;1.55;0.50;;;;;;;10.88;90.49;99136.66;5092944;28;20054;-82
2024/02/27 04:43:45;;;;;;;1.50;0.50;;;;;;;10.70;91.06;99149.38;5081017;28;20051;-79
2024/02/27 04:46:49;;;;;;;0.73;0.30;;;;;;;10.70;90.52;99152.06;5093298;28;20054;-80
2024/02/27 04:49:54;;;;;;;3.65;0.80;;;;;;;10.54;91.55;99165.44;5093138;28;20055;-82
2024/02/27 04:52:59;;;;;;;1.73;0.30;;;;;;;10.28;92.75;99172.72;5093060;28;20051;-82
2024/02/27 04:56:05;;;;;;;1.27;0.50;;;;;;;10.04;94.26;99183.31;5092341;28;20383;-82
2024/02/27 04:59:09;;;;;;;6.38;0.70;;;;;;;10.28;93.31;99181.59;5093248;28;20047;-82
2024/02/27 05:02:14;;;;;;;2.47;0.70;;;;;;;10.28;93.26;99183.44;5093115;28;20055;-80
2024/02/27 05:05:20;;;;;;;1.30;0.50;;;;;;;10.41;92.73;99183.84;5080404;28;20071;-80
2024/02/27 05:08:24;;;;;;;1.58;0.52;;;;;;;10.51;92.98;99189.06;5093186;28;20078;-79
2024/02/27 05:11:29;;;;;;;1.30;0.35;;;;;;;10.47;93.35;99185.03;5093088;28;20059;-81
2024/02/27 05:14:34;;;;;;;1.52;0.60;;;;;;;10.52;93.38;99182.72;5093030;28;20055;-81
2024/02/27 05:17:38;;;;;;;1.67;0.55;;;;;;;10.47;93.88;99183.16;5098991;28;20046;-81
2024/02/27 05:20:43;;;;;;;2.25;0.88;;;;;;;10.53;93.27;99182.53;5101387;28;20402;-82
2024/02/27 05:23:48;;;;;;;1.52;0.40;;;;;;;10.58;93.37;99180.19;5116915;28;20070;-81
2024/02/27 05:26:53;;;;;;;0.80;0.40;;;;;;;10.65;93.25;99178.53;5115275;28;20051;-81
2024/02/27 05:29:57;;;;;;;1.63;0.52;;;;;;;10.63;93.83;99177.03;5116561;28;20398;-81
2024/02/27 05:33:03;;;;;;;1.40;0.47;;;;;;;10.64;93.99;99184.91;5104408;28;20067;-79
2024/02/27 05:36:08;;;;;;;0.90;0.40;;;;;;;10.72;93.46;99174.19;5116333;28;20508;-79
2024/02/27 05:39:13;;;;;;;1.23;0.50;;;;;;;10.75;93.83;99175.72;5104041;28;20477;-81
2024/02/27 05:42:18;;;;;;;1.65;0.68;;;;;;;10.61;94.50;99171.00;5104163;28;20059;-82
2024/02/27 05:45:22;;;;;;;1.25;0.55;;;;;;;10.89;93.89;99172.38;5103621;28;20509;-81
2024/02/27 05:48:27;;;;;;;1.63;0.50;;;;;;;11.14;93.16;99190.19;5116517;28;20050;-82
2024/02/27 05:51:31;;;;;;;1.70;0.60;;;;;;;11.10;93.10;99189.72;5097539;28;20059;-80
2024/02/27 05:54:36;;;;;;;1.50;0.45;;;;;;;10.94;93.11;99195.03;5095996;28;20071;-80
2024/02/27 05:57:41;;;;;;;2.05;0.40;;;;;;;10.92;94.17;99194.38;5096204;28;20051;-80
2024/02/27 06:00:45;;;;;;;1.67;0.70;;;;;;;10.83;93.81;99198.06;5094808;28;20391;-82
2024/02/27 06:03:50;;;;;;;1.60;0.40;;;;;;;10.88;93.88;99209.16;5075485;28;20172;-83
2024/02/27 06:06:54;;;;;;;0.80;0.30;;;;;;;10.83;94.56;99213.31;5075427;28;20059;-80
2024/02/27 06:09:59;;;;;;;0.75;0.25;;;;;;;10.95;94.13;99222.75;5075481;28;20071;-81
2024/02/27 06:13:04;;;;;;;0.60;0.30;;;;;;;11.23;92.98;99225.97;5063071;28;20051;-81
2024/02/27 06:16:08;;;;;;;0.93;0.30;;;;;;;11.36;92.60;99234.38;5062390;28;20059;-81
2024/02/27 06:19:13;;;;;;;0.85;0.40;;;;;;;11.28;92.98;99231.69;5075357;28;20060;-82
2024/02/27 06:22:20;;;;;;;1.50;0.60;;;;;;;11.39;92.44;99239.41;5062651;28;20051;-80
2024/02/27 06:25:25;;;;;;;1.52;0.52;;;;;;;11.30;92.88;99245.78;5075098;28;20063;-80
2024/02/27 06:28:31;;;;;;;2.75;0.45;;;;;;;11.41;92.61;99250.81;5075151;28;20060;-82
2024/02/27 06:31:35;;;;;;;1.10;0.60;;;;;;;11.25;93.00;99266.94;5074734;28;20048;-81
2024/02/27 06:34:41;;;;;;;1.38;0.50;;;;;;;11.27;93.21;99276.50;5075467;28;20036;-80
2024/02/27 06:37:48;;;;;;;2.15;0.57;;;;;;;11.54;91.80;99272.69;5081232;28;20047;-81
2024/02/27 06:40:52;;;;;;;1.30;0.45;;;;;;;11.40;92.44;99270.66;5068362;28;20075;-78
2024/02/27 06:43:57;;;;;;;1.08;0.30;;;;;;;11.27;92.87;99291.78;5079266;28;20055;-89
2024/02/27 06:47:02;;;;;;;1.45;0.75;;;;;;;11.11;93.50;99281.84;5074937;28;20102;-71
2024/02/27 06:50:07;;;;;;;1.60;0.43;;;;;;;11.16;94.95;99267.94;5100979;28;20066;-72
2024/02/27 06:53:12;;;;;;;4.53;2.22;;;;;;;11.09;94.41;99263.22;5075680;28;20507;-73
2024/02/27 06:56:18;;;;;;;3.15;0.98;;;;;;;11.27;93.39;99275.66;5088841;28;20055;-73
2024/02/27 06:59:22;;;;;;;1.50;0.57;;;;;;;11.24;93.95;99276.84;5094754;28;20398;-72
2024/02/27 07:02:27;;;;;;;1.20;0.50;;;;;;;11.16;93.39;99284.06;5094639;28;20054;-71
2024/02/27 07:05:33;;;;;;;5.10;0.60;;;;;;;11.07;94.14;99296.59;5094573;28;20051;-71
2024/02/27 07:08:38;;;;;;;3.03;0.50;;;;;;;11.08;94.60;99303.66;5094610;28;20047;-77
2024/02/27 07:11:42;;;;;;;3.13;0.93;;;;;;;11.26;94.42;99322.34;5094512;28;20482;-75
2024/02/27 07:14:47;;;;;;;1.83;0.45;;;;;;;11.37;93.81;99330.94;5094459;28;20067;-76
2024/02/27 07:17:52;;;;;;;2.78;0.50;;;;;;;11.52;93.09;99310.47;5094700;28;20474;-74
2024/02/27 07:20:59;;;;;;;4.05;0.80;;;;;;;11.54;93.29;99323.75;5094396;28;20051;-76
2024/02/27 07:24:04;;;;;;;4.15;1.13;;;;;;;11.55;93.90;99320.88;5094368;28;20399;-73
2024/02/27 07:27:09;;;;;;;2.60;1.00;;;;;;;11.63;94.05;99341.53;5094078;28;20051;-77
2024/02/27 07:30:17;;;;;;;1.38;0.60;;;;;;;11.63;93.93;99330.78;5094186;28;20047;-78
2024/02/27 07:33:22;;;;;;;2.67;0.63;;;;;;;11.67;94.35;99311.50;5094167;28;20071;-78
2024/02/27 07:36:26;;;;;;;1.17;0.50;;;;;;;11.57;94.63;99321.56;5094162;28;20055;-79
2024/02/27 07:39:31;;;;;;;1.67;0.55;;;;;;;11.75;93.62;99326.84;5093968;28;20047;-79
2024/02/27 07:42:36;;;;;;;2.78;0.50;;;;;;;11.82;93.22;99321.63;5093419;28;20486;-79
2024/02/27 07:45:41;;;;;;;1.05;0.50;;;;;;;11.84;92.69;99320.44;5093848;28;20055;-78
2024/02/27 07:48:46;;;;;;;2.08;0.63;;;;;;;12.02;91.92;99329.19;5093879;28;20066;-83
2024/02/27 07:51:53;;;;;;;2.40;0.63;;;;;;;11.99;92.11;99342.13;5093815;28;20043;-79
2024/02/27 07:54:58;;;;;;;1.20;0.50;;;;;;;11.94;92.29;99353.38;5093847;28;20047;-79
2024/02/27 07:58:03;;;;;;;1.52;0.55;;;;;;;12.09;91.68;99361.63;5081246;28;20044;-80
2024/02/27 08:01:08;;;;;;;1.52;0.63;;;;;;;11.93;92.66;99365.13;5094222;28;20044;-81
2024/02/27 08:04:12;;;;;;;1.50;0.77;;;;;;;11.87;92.82;99343.47;5093796;28;20055;-81
2024/02/27 08:07:17;;;;;;;3.20;1.20;;;;;;;12.09;92.15;99350.88;5093666;28;20055;-80
2024/02/27 08:10:21;;;;;;;2.80;1.15;;;;;;;12.04;91.74;99356.75;5091863;28;20055;-77
2024/02/27 08:13:27;;;;;;;1.40;0.70;;;;;;;11.99;92.43;99369.00;5093627;28;20051;-74
2024/02/27 08:16:32;;;;;;;1.17;0.57;;;;;;;11.90;92.98;99370.03;5083564;28;20062;-79
2024/02/27 08:19:39;;;;;;;2.97;1.08;;;;;;;11.96;92.03;99397.09;5095535;28;20055;-80
2024/02/27 08:22:44;;;;;;;1.80;0.60;;;;;;;11.96;92.32;99397.09;5111620;28;20055;-79
2024/02/27 08:25:49;;;;;;;2.88;0.60;;;;;;;12.04;92.09;99404.31;5111569;28;20505;-80
2024/02/27 08:28:55;;;;;;;1.42;0.52;;;;;;;12.03;91.53;99403.47;5111708;28;20055;-82
2024/02/27 08:32:00;;;;;;;1.20;0.45;;;;;;;12.13;90.94;99417.59;5090535;28;20055;-79
2024/02/27 08:35:05;;;;;;;1.55;0.40;;;;;;;12.11;90.54;99413.41;5091055;28;20047;-77
2024/02/27 08:38:10;;;;;;;1.60;0.95;;;;;;;12.09;90.22;99401.97;5092967;28;20062;-76
2024/02/27 08:41:20;;;;;;;1.58;0.43;;;;;;;12.11;90.58;99408.88;5092733;28;20067;-76
2024/02/27 08:44:25;;;;;;;0.85;0.32;;;;;;;12.24;90.19;99414.59;5080965;28;20062;-79
2024/02/27 08:47:29;;;;;;;2.03;0.90;;;;;;;12.39;88.85;99426.34;5092132;28;20070;-81
2024/02/27 08:50:34;;;;;;;1.95;0.75;;;;;;;12.54;88.46;99414.91;5102607;28;20059;-79
2024/02/27 08:53:39;;;;;;;1.40;0.65;;;;;;;12.54;88.89;99436.44;5111695;28;20401;-82
2024/02/27 08:56:44;;;;;;;1.63;0.85;;;;;;;12.23;89.46;99447.88;5116642;28;20050;-82
2024/02/27 08:59:49;;;;;;;1.70;0.90;;;;;;;12.15;89.89;99447.88;5103294;28;20505;-80
2024/02/27 09:02:54;;;;;;;1.92;0.80;;;;;;;12.15;89.89;99438.94;5115778;28;20042;-80
2024/02/27 09:06:00;;;;;;;2.67;1.30;;;;;;;12.21;89.75;99438.28;5116491;28;20156;-79
2024/02/27 09:09:06;;;;;;;3.97;1.42;;;;;;;12.26;89.57;99436.78;5116542;28;20398;-81
2024/02/27 09:12:13;;;;;;;2.90;1.80;;;;;;;12.14;90.92;99435.44;5116768;28;20063;-83
2024/02/27 09:15:18;;;;;;;3.08;1.80;;;;;;;12.43;89.72;99443.00;5116615;28;20054;-83
2024/02/27 09:18:23;;;;;;;3.85;2.00;;;;;;;12.49;89.72;99458.50;5103917;28;20050;-80
2024/02/27 09:21:28;;;;;;;4.72;2.50;;;;;;;12.38;90.32;99465.03;5115675;28;20051;-83
2024/02/27 09:24:33;;;;;;;5.10;2.40;;;;;;;12.27;91.05;99456.47;5116235;28;20054;-80
2024/02/27 09:27:38;;;;;;;3.28;2.40;;;;;;;12.59;90.19;99448.38;5116392;28;20051;-77
2024/02/27 09:30:43;;;;;;;6.65;2.28;;;;;;;12.49;90.13;99463.03;5114233;27;20062;-77
2024/02/27 09:33:48;;;;;;;5.07;3.17;;;;;;;12.38;90.36;99467.75;5115207;28;20063;-81
2024/02/27 09:36:54;;;;;;;3.72;2.47;;;;;;;12.50;90.50;99472.78;5115966;28;20054;-79
2024/02/27 09:39:58;;;;;;;3.35;2.20;;;;;;;12.63;90.70;99476.66;5114769;27;20058;-79
2024/02/27 09:43:10;;;;;;;94.22;59.33;;;;;;;12.65;90.79;99473.78;5104668;28;20046;-80
2024/02/27 09:46:15;;;;;;;17.45;12.57;;;;;;;12.71;90.50;99473.13;5107890;28;20070;-80
2024/02/27 09:49:22;;;;;;;7.28;4.47;;;;;;;12.89;90.64;99471.06;5115847;28;20071;-79
2024/02/27 09:52:28;;;;;;;4.57;2.80;;;;;;;12.91;90.03;99477.13;5114610;28;20067;-79
2024/02/27 09:55:32;;;;;;;4.20;2.67;;;;;;;12.94;89.58;99472.22;5114249;28;20055;-80
2024/02/27 09:58:38;;;;;;;4.40;2.65;;;;;;;12.78;90.59;99474.09;5115592;28;20043;-82
2024/02/27 10:01:47;;;;;;;4.65;2.35;;;;;;;12.82;90.73;99475.44;5115452;28;20055;-79
2024/02/27 10:04:53;;;;;;;4.15;2.25;;;;;;;12.93;90.08;99473.25;5115297;28;20050;-76
2024/02/27 10:08:04;;;;;;;8.38;2.88;;;;;;;13.16;89.65;99484.16;5114565;28;20386;-77
2024/02/27 10:11:10;;;;;;;4.60;2.10;;;;;;;13.20;89.86;99484.66;5115226;28;20050;-76
2024/02/27 10:14:22;;;;;;;6.40;3.63;;;;;;;13.37;89.19;99487.16;5115516;28;20051;-82
2024/02/27 10:17:28;;;;;;;5.60;2.60;;;;;;;13.35;89.35;99493.72;5115258;28;20105;-81
2024/02/27 10:20:32;;;;;;;3.45;2.47;;;;;;;13.43;89.55;99499.91;5114092;28;20051;-86
2024/02/27 10:23:37;;;;;;;3.13;2.15;;;;;;;13.67;88.16;99499.84;5115177;28;20046;-78
2024/02/27 10:26:51;;;;;;;5.22;1.90;;;;;;;13.63;88.57;99514.69;5115161;28;20512;-81
2024/02/27 10:29:56;;;;;;;;;;;;;;;13.62;87.70;99517.56;5115384;28;20047;-83
2024/02/27 10:33:01;;;;;;;4.00;2.30;;;;;;;13.44;88.14;99517.78;5114897;28;19919;-77
2024/02/27 10:36:09;;;;;;;4.90;2.20;;;;;;;13.39;88.04;99522.84;5115123;28;20058;-78
2024/02/27 10:39:14;;;;;;;4.93;2.10;;;;;;;13.17;89.43;99522.72;5114721;28;20516;-82
2024/02/27 10:42:19;;;;;;;5.00;2.40;;;;;;;13.00;90.12;99516.50;5114764;28;20047;-79
2024/02/27 10:45:23;;;;;;;4.90;2.38;;;;;;;13.08;89.75;99518.38;5114591;28;20070;-83
2024/02/27 10:48:29;;;;;;;5.13;2.25;;;;;;;12.88;90.21;99520.56;5114649;28;20062;-81
2024/02/27 10:51:34;;;;;;;3.97;2.17;;;;;;;12.93;90.84;99526.28;5114379;28;20066;-80
2024/02/27 10:54:39;;;;;;;4.60;2.20;;;;;;;12.86;90.68;99530.66;5114521;28;20047;-81
2024/02/27 10:57:44;;;;;;;4.30;2.05;;;;;;;12.78;91.62;99514.50;5119313;27;20397;-80
2024/02/27 11:00:49;;;;;;;3.38;1.90;;;;;;;12.69;92.73;99521.72;5126351;27;20109;-81
2024/02/27 11:03:54;;;;;;;3.40;2.00;;;;;;;12.91;92.22;99531.00;5093684;28;20050;-79
2024/02/27 11:07:01;;;;;;;3.30;2.10;;;;;;;12.87;92.09;99532.34;5093784;28;20054;-82
2024/02/27 11:10:08;;;;;;;3.80;2.10;;;;;;;12.91;91.38;99534.50;5093644;28;20043;-80
2024/02/27 11:13:16;;;;;;;3.25;2.20;;;;;;;12.98;91.82;99534.69;5101266;28;20050;-89
2024/02/27 11:16:23;;;;;;;3.70;2.17;;;;;;;13.09;91.11;99520.03;5113072;28;20497;-84
2024/02/27 11:19:31;;;;;;;3.97;2.28;;;;;;;13.26;90.73;99524.41;5112140;28;20046;-85
2024/02/27 11:22:37;;;;;;;3.92;1.80;;;;;;;13.31;90.65;99517.47;5112924;28;20051;-80
2024/02/27 11:25:43;;;;;;;3.50;2.05;;;;;;;13.27;90.82;99515.31;5113094;28;20414;-83
2024/02/27 11:28:49;;;;;;;2.70;1.80;;;;;;;13.35;90.26;99513.44;5100458;28;20353;-80
2024/02/27 11:31:54;;;;;;;3.65;2.25;;;;;;;13.25;91.11;99503.84;5112407;28;20393;-82
2024/02/27 11:34:59;;;;;;;3.38;2.10;;;;;;;13.38;91.19;99510.38;5113760;28;20055;-83
2024/02/27 11:38:06;;;;;;;5.65;2.65;;;;;;;13.46;91.01;99510.34;5112616;28;20039;-84
2024/02/27 11:41:23;;;;;;;3.45;2.25;;;;;;;13.61;90.20;99505.94;5112958;28;20501;-80
2024/02/27 11:44:27;;;;;;;4.47;2.45;;;;;;;13.52;89.69;99508.84;5113201;27;20054;-75
2024/02/27 11:47:38;;;;;;;3.22;2.28;;;;;;;13.45;89.17;99511.41;5110026;28;20043;-84
2024/02/27 11:50:42;;;;;;;5.45;2.10;;;;;;;13.43;90.10;99499.91;5103987;28;20051;-83
2024/02/27 11:53:48;;;;;;;3.15;1.83;;;;;;;13.39;89.94;99503.13;5097376;28;20047;-81
2024/02/27 11:56:53;;;;;;;3.75;2.30;;;;;;;13.44;89.45;99504.31;5098980;28;20372;-84
2024/02/27 12:00:09;;;;;;;3.05;2.00;;;;;;;13.39;89.65;99497.75;5072477;28;20051;-80
2024/02/27 12:03:14;;;;;;;4.53;2.40;;;;;;;13.49;90.20;99490.31;5073332;28;20056;-80
2024/02/27 12:06:18;;;;;;;4.38;2.40;;;;;;;13.63;89.93;99492.25;5079351;28;20047;-78
2024/02/27 12:09:24;;;;;;;4.22;2.90;;;;;;;13.55;89.97;99490.44;5113505;28;20055;-84
2024/02/27 12:12:29;;;;;;;4.07;2.38;;;;;;;13.69;89.37;99487.03;5097272;28;20055;-82
2024/02/27 12:15:34;;;;;;;3.35;2.28;;;;;;;13.54;89.59;99504.09;5091980;28;20047;-82
2024/02/27 12:18:39;;;;;;;4.82;2.55;;;;;;;13.53;90.15;99497.84;5091864;28;20039;-83
2024/02/27 12:21:44;;;;;;;5.18;2.45;;;;;;;12.94;92.47;99496.47;5092143;28;20059;-85
2024/02/27 12:24:54;;;;;;;3.80;2.67;;;;;;;13.11;92.53;99485.72;5092840;28;20051;-84
2024/02/27 12:27:59;;;;;;;3.58;2.17;;;;;;;13.57;89.80;99491.13;5092894;28;20047;-84
2024/02/27 12:31:03;;;;;;;5.95;2.40;;;;;;;13.83;88.80;99488.13;5096065;28;20493;-85
2024/02/27 12:34:08;;;;;;;2.80;1.75;;;;;;;13.78;87.98;99487.81;5096826;28;20050;-83
2024/02/27 12:37:12;;;;;;;4.10;2.63;;;;;;;13.31;89.72;99493.22;5095640;28;20070;-82
2024/02/27 12:40:19;;;;;;;4.35;2.83;;;;;;;13.28;90.58;99495.44;5082337;28;20047;-86
2024/02/27 12:43:24;;;;;;;5.05;3.28;;;;;;;13.25;90.66;99495.78;5094735;28;20398;-86
2024/02/27 12:46:29;;;;;;;6.10;2.58;;;;;;;13.15;91.22;99487.88;5094707;28;20067;-85
2024/02/27 12:49:33;;;;;;;3.35;2.28;;;;;;;13.25;90.67;99491.22;5085615;28;20394;-86
2024/02/27 12:52:39;;;;;;;2.60;1.88;;;;;;;13.21;90.63;99497.97;5116917;28;20066;-84
2024/02/27 12:55:45;;;;;;;3.50;1.98;;;;;;;13.25;90.58;99498.47;5117411;28;20055;-88
2024/02/27 12:58:51;;;;;;;4.90;2.72;;;;;;;13.31;90.48;99492.38;5117366;28;20051;-85
2024/02/27 13:01:55;;;;;;;5.13;2.10;;;;;;;13.35;90.90;99481.09;5117304;28;20055;-87
2024/02/27 13:05:07;;;;;;;3.85;2.17;;;;;;;13.36;90.74;99485.47;5117121;28;20054;-86
2024/02/27 13:08:13;;;;;;;3.20;2.15;;;;;;;13.40;90.49;99484.13;5117210;28;20434;-84
2024/02/27 13:11:19;;;;;;;4.00;2.35;;;;;;;13.41;90.17;99475.00;5116557;28;20044;-88
2024/02/27 13:14:24;;;;;;;5.63;2.63;;;;;;;13.35;91.19;99483.78;5114347;28;20050;-72
2024/02/27 13:17:29;;;;;;;4.55;2.28;;;;;;;13.35;91.34;99494.56;5113928;27;20054;-73
2024/02/27 13:20:34;;;;;;;4.82;2.80;;;;;;;13.50;90.66;99494.69;5116455;28;20055;-73
2024/02/27 13:23:39;;;;;;;3.50;2.30;;;;;;;13.21;91.50;99497.16;5116359;28;20046;-73
2024/02/27 13:26:45;;;;;;;4.03;2.47;;;;;;;13.19;91.63;99489.22;5116267;28;20054;-73
2024/02/27 13:29:50;;;;;;;5.47;3.50;;;;;;;13.24;91.60;99492.22;5116034;28;20059;-74
2024/02/27 13:32:55;;;;;;;5.63;4.20;;;;;;;13.26;91.68;99487.50;5116025;28;20054;-79
2024/02/27 13:35:59;;;;;;;6.00;2.80;;;;;;;13.29;91.38;99487.16;5115724;28;20074;-79
2024/02/27 13:39:05;;;;;;;5.05;2.53;;;;;;;13.37;91.41;99481.75;5115998;28;20052;-78
2024/02/27 13:42:10;;;;;;;4.22;2.88;;;;;;;13.34;91.51;99490.19;5114499;28;20504;-78
2024/02/27 13:45:14;;;;;;;3.65;2.75;;;;;;;13.36;91.54;99479.22;5116141;28;20039;-78
2024/02/27 13:48:19;;;;;;;5.65;3.10;;;;;;;13.39;91.11;99474.34;5115817;28;20065;-79
2024/02/27 13:51:24;;;;;;;5.40;2.50;;;;;;;13.31;91.88;99476.19;5114884;28;20505;-77
2024/02/27 13:54:29;;;;;;;3.60;2.55;;;;;;;13.31;91.35;99482.44;5103152;28;20401;-77
2024/02/27 13:57:33;;;;;;;3.60;2.53;;;;;;;13.49;91.01;99469.56;5107855;28;20409;-78
2024/02/27 14:00:38;;;;;;;6.10;3.63;;;;;;;13.47;90.38;99463.53;5115513;28;20046;-80
2024/02/27 14:03:43;;;;;;;6.95;4.47;;;;;;;13.39;91.22;99477.03;5115453;28;20058;-78
2024/02/27 14:06:47;;;;;;;5.05;3.22;;;;;;;13.29;91.25;99479.09;5108054;27;20054;-78
2024/02/27 14:09:52;;;;;;;4.10;2.67;;;;;;;13.42;89.68;99490.16;5135789;27;20050;-81
2024/02/27 14:12:57;;;;;;;5.25;3.45;;;;;;;13.22;90.97;99485.34;5122552;27;20066;-80
2024/02/27 14:16:02;;;;;;;5.45;3.10;;;;;;;13.23;91.00;99485.19;5134913;27;20046;-79
2024/02/27 14:19:09;;;;;;;5.95;2.80;;;;;;;13.12;91.70;99482.84;5135888;27;20050;-79
2024/02/27 14:22:18;;;;;;;4.88;3.28;;;;;;;13.41;90.44;99469.59;5120813;27;20051;-78
2024/02/27 14:25:22;;;;;;;6.28;4.28;;;;;;;13.21;91.17;99478.28;5109939;28;20047;-78
2024/02/27 14:28:27;;;;;;;8.65;6.28;;;;;;;13.17;91.64;99487.69;5114903;28;20042;-78
2024/02/27 14:31:34;;;;;;;9.07;5.53;;;;;;;13.23;91.17;99490.56;5114276;28;20150;-79
2024/02/27 14:34:39;;;;;;;8.85;5.53;;;;;;;13.32;91.39;99494.06;5114749;28;20050;-79